sensor_id;sensor_type;location;lat;lon;timestamp;P1;durP1;ratioP1;P2;durP2;ratioP2
59587;SDS011;45412;54.472;18.464;2024-01-30T00:00:51;30.10;;;14.00;;
59587;SDS011;45412;54.472;18.464;2024-01-30T00:03:47;30.00;;;12.30;;
59587;SDS011;45412;54.472;18.464;2024-01-30T00:06:34;31.10;;;13.00;;
59587;SDS011;45412;54.472;18.464;2024-01-30T00:09:20;33.30;;;14.10;;
59587;SDS011;45412;54.472;18.464;2024-01-30T00:12:07;32.30;;;14.10;;
59587;SDS011;45412;54.472;18.464;2024-01-30T00:14:53;33.90;;;14.00;;
59587;SDS011;45412;54.472;18.464;2024-01-30T00:17:41;37.40;;;14.70;;
59587;SDS011;45412;54.472;18.464;2024-01-30T00:20:27;30.90;;;12.80;;
59587;SDS011;45412;54.472;18.464;2024-01-30T00:23:14;33.10;;;14.50;;
59587;SDS011;45412;54.472;18.464;2024-01-30T00:26:00;31.90;;;14.10;;
59587;SDS011;45412;54.472;18.464;2024-01-30T00:28:47;36.70;;;15.60;;
59587;SDS011;45412;54.472;18.464;2024-01-30T00:31:35;35.30;;;14.70;;
59587;SDS011;45412;54.472;18.464;2024-01-30T00:34:25;37.50;;;16.10;;
59587;SDS011;45412;54.472;18.464;2024-01-30T00:37:11;34.60;;;15.80;;
59587;SDS011;45412;54.472;18.464;2024-01-30T00:39:58;37.60;;;15.20;;
59587;SDS011;45412;54.472;18.464;2024-01-30T00:42:45;34.10;;;14.80;;
59587;SDS011;45412;54.472;18.464;2024-01-30T00:45:31;34.40;;;15.00;;
59587;SDS011;45412;54.472;18.464;2024-01-30T00:48:18;37.90;;;16.40;;
59587;SDS011;45412;54.472;18.464;2024-01-30T00:51:05;35.30;;;15.20;;
59587;SDS011;45412;54.472;18.464;2024-01-30T00:53:51;38.20;;;15.90;;
59587;SDS011;45412;54.472;18.464;2024-01-30T00:56:38;36.40;;;16.50;;
59587;SDS011;45412;54.472;18.464;2024-01-30T00:59:24;39.40;;;18.10;;
59587;SDS011;45412;54.472;18.464;2024-01-30T01:02:11;37.20;;;17.60;;
59587;SDS011;45412;54.472;18.464;2024-01-30T01:04:58;41.90;;;16.80;;
59587;SDS011;45412;54.472;18.464;2024-01-30T01:07:45;33.50;;;15.40;;
59587;SDS011;45412;54.472;18.464;2024-01-30T01:10:33;37.90;;;15.40;;
59587;SDS011;45412;54.472;18.464;2024-01-30T01:13:20;34.40;;;14.60;;
59587;SDS011;45412;54.472;18.464;2024-01-30T01:16:06;39.80;;;17.80;;
59587;SDS011;45412;54.472;18.464;2024-01-30T01:18:53;32.40;;;14.00;;
59587;SDS011;45412;54.472;18.464;2024-01-30T01:21:39;36.40;;;16.30;;
59587;SDS011;45412;54.472;18.464;2024-01-30T01:24:26;38.70;;;17.00;;
59587;SDS011;45412;54.472;18.464;2024-01-30T01:27:12;41.80;;;18.30;;
59587;SDS011;45412;54.472;18.464;2024-01-30T01:29:59;41.80;;;18.10;;
59587;SDS011;45412;54.472;18.464;2024-01-30T01:32:45;36.70;;;16.40;;
59587;SDS011;45412;54.472;18.464;2024-01-30T01:35:37;37.50;;;16.20;;
59587;SDS011;45412;54.472;18.464;2024-01-30T01:38:23;30.30;;;13.80;;
59587;SDS011;45412;54.472;18.464;2024-01-30T01:41:09;36.90;;;16.10;;
59587;SDS011;45412;54.472;18.464;2024-01-30T01:43:56;32.50;;;13.60;;
59587;SDS011;45412;54.472;18.464;2024-01-30T01:46:43;36.70;;;15.60;;
59587;SDS011;45412;54.472;18.464;2024-01-30T01:49:29;36.30;;;15.90;;
59587;SDS011;45412;54.472;18.464;2024-01-30T01:52:16;35.20;;;14.50;;
59587;SDS011;45412;54.472;18.464;2024-01-30T01:55:03;38.30;;;16.60;;
59587;SDS011;45412;54.472;18.464;2024-01-30T01:57:51;40.10;;;16.10;;
59587;SDS011;45412;54.472;18.464;2024-01-30T02:00:39;41.10;;;17.80;;
59587;SDS011;45412;54.472;18.464;2024-01-30T02:03:28;32.00;;;13.50;;
59587;SDS011;45412;54.472;18.464;2024-01-30T02:06:15;32.70;;;12.60;;
59587;SDS011;45412;54.472;18.464;2024-01-30T02:09:02;34.90;;;13.70;;
59587;SDS011;45412;54.472;18.464;2024-01-30T02:11:50;38.30;;;15.70;;
59587;SDS011;45412;54.472;18.464;2024-01-30T02:14:47;34.90;;;15.00;;
59587;SDS011;45412;54.472;18.464;2024-01-30T02:17:34;41.60;;;18.30;;
59587;SDS011;45412;54.472;18.464;2024-01-30T02:20:21;40.40;;;18.00;;
59587;SDS011;45412;54.472;18.464;2024-01-30T02:23:10;34.10;;;16.40;;
59587;SDS011;45412;54.472;18.464;2024-01-30T02:25:58;34.90;;;14.90;;
59587;SDS011;45412;54.472;18.464;2024-01-30T02:28:46;32.40;;;14.50;;
59587;SDS011;45412;54.472;18.464;2024-01-30T02:31:33;30.80;;;15.20;;
59587;SDS011;45412;54.472;18.464;2024-01-30T02:34:20;33.50;;;15.10;;
59587;SDS011;45412;54.472;18.464;2024-01-30T02:37:07;37.60;;;16.20;;
59587;SDS011;45412;54.472;18.464;2024-01-30T02:39:54;30.90;;;14.20;;
59587;SDS011;45412;54.472;18.464;2024-01-30T02:42:40;42.60;;;18.30;;
59587;SDS011;45412;54.472;18.464;2024-01-30T02:45:27;41.90;;;18.10;;
59587;SDS011;45412;54.472;18.464;2024-01-30T02:48:14;40.50;;;17.70;;
59587;SDS011;45412;54.472;18.464;2024-01-30T02:51:00;43.10;;;18.30;;
59587;SDS011;45412;54.472;18.464;2024-01-30T02:53:48;47.70;;;18.90;;
59587;SDS011;45412;54.472;18.464;2024-01-30T02:56:35;40.80;;;19.40;;
59587;SDS011;45412;54.472;18.464;2024-01-30T02:59:21;49.90;;;21.10;;
59587;SDS011;45412;54.472;18.464;2024-01-30T03:02:08;38.00;;;18.00;;
59587;SDS011;45412;54.472;18.464;2024-01-30T03:04:54;41.30;;;17.70;;
59587;SDS011;45412;54.472;18.464;2024-01-30T03:07:41;44.10;;;18.40;;
59587;SDS011;45412;54.472;18.464;2024-01-30T03:10:29;36.00;;;17.30;;
59587;SDS011;45412;54.472;18.464;2024-01-30T03:13:15;43.30;;;19.30;;
59587;SDS011;45412;54.472;18.464;2024-01-30T03:16:01;44.40;;;19.10;;
59587;SDS011;45412;54.472;18.464;2024-01-30T03:18:49;42.40;;;18.60;;
59587;SDS011;45412;54.472;18.464;2024-01-30T03:21:35;43.70;;;18.00;;
59587;SDS011;45412;54.472;18.464;2024-01-30T03:24:22;36.60;;;15.90;;
59587;SDS011;45412;54.472;18.464;2024-01-30T03:27:08;37.50;;;17.20;;
59587;SDS011;45412;54.472;18.464;2024-01-30T03:29:55;30.70;;;12.80;;
59587;SDS011;45412;54.472;18.464;2024-01-30T03:32:42;40.20;;;17.30;;
59587;SDS011;45412;54.472;18.464;2024-01-30T03:35:29;37.00;;;15.70;;
59587;SDS011;45412;54.472;18.464;2024-01-30T03:38:16;36.50;;;15.80;;
59587;SDS011;45412;54.472;18.464;2024-01-30T03:41:02;39.80;;;17.80;;
59587;SDS011;45412;54.472;18.464;2024-01-30T03:43:48;42.40;;;18.70;;
59587;SDS011;45412;54.472;18.464;2024-01-30T03:46:35;37.20;;;17.30;;
59587;SDS011;45412;54.472;18.464;2024-01-30T03:49:22;36.70;;;15.80;;
59587;SDS011;45412;54.472;18.464;2024-01-30T03:52:08;30.30;;;13.00;;
59587;SDS011;45412;54.472;18.464;2024-01-30T03:54:55;33.00;;;14.30;;
59587;SDS011;45412;54.472;18.464;2024-01-30T03:57:41;39.60;;;16.00;;
59587;SDS011;45412;54.472;18.464;2024-01-30T04:00:28;38.50;;;16.40;;
59587;SDS011;45412;54.472;18.464;2024-01-30T04:03:15;34.80;;;14.20;;
59587;SDS011;45412;54.472;18.464;2024-01-30T04:06:04;41.70;;;17.80;;
59587;SDS011;45412;54.472;18.464;2024-01-30T04:08:51;38.10;;;16.90;;
59587;SDS011;45412;54.472;18.464;2024-01-30T04:11:37;36.40;;;16.40;;
59587;SDS011;45412;54.472;18.464;2024-01-30T04:14:24;38.50;;;17.40;;
59587;SDS011;45412;54.472;18.464;2024-01-30T04:17:10;36.50;;;15.20;;
59587;SDS011;45412;54.472;18.464;2024-01-30T04:19:57;37.80;;;16.10;;
59587;SDS011;45412;54.472;18.464;2024-01-30T04:22:44;39.60;;;16.50;;
59587;SDS011;45412;54.472;18.464;2024-01-30T04:25:31;35.00;;;16.70;;
59587;SDS011;45412;54.472;18.464;2024-01-30T04:28:18;39.80;;;16.10;;
59587;SDS011;45412;54.472;18.464;2024-01-30T04:31:05;37.10;;;16.80;;
59587;SDS011;45412;54.472;18.464;2024-01-30T04:33:51;33.90;;;16.30;;
59587;SDS011;45412;54.472;18.464;2024-01-30T04:36:38;33.90;;;13.80;;
59587;SDS011;45412;54.472;18.464;2024-01-30T04:39:24;35.20;;;15.30;;
59587;SDS011;45412;54.472;18.464;2024-01-30T04:42:11;39.30;;;17.20;;
59587;SDS011;45412;54.472;18.464;2024-01-30T04:44:58;38.60;;;17.60;;
59587;SDS011;45412;54.472;18.464;2024-01-30T04:47:44;43.00;;;19.00;;
59587;SDS011;45412;54.472;18.464;2024-01-30T04:50:32;39.50;;;18.10;;
59587;SDS011;45412;54.472;18.464;2024-01-30T04:53:18;41.00;;;16.90;;
59587;SDS011;45412;54.472;18.464;2024-01-30T04:56:05;36.60;;;15.30;;
59587;SDS011;45412;54.472;18.464;2024-01-30T04:58:52;36.40;;;16.10;;
59587;SDS011;45412;54.472;18.464;2024-01-30T05:01:39;36.80;;;16.10;;
59587;SDS011;45412;54.472;18.464;2024-01-30T05:04:26;43.00;;;17.90;;
59587;SDS011;45412;54.472;18.464;2024-01-30T05:07:12;41.00;;;17.60;;
59587;SDS011;45412;54.472;18.464;2024-01-30T05:09:59;40.60;;;18.40;;
59587;SDS011;45412;54.472;18.464;2024-01-30T05:12:48;38.90;;;16.10;;
59587;SDS011;45412;54.472;18.464;2024-01-30T05:15:35;42.20;;;17.10;;
59587;SDS011;45412;54.472;18.464;2024-01-30T05:18:22;32.50;;;14.20;;
59587;SDS011;45412;54.472;18.464;2024-01-30T05:21:08;36.10;;;16.60;;
59587;SDS011;45412;54.472;18.464;2024-01-30T05:23:55;39.80;;;17.90;;
59587;SDS011;45412;54.472;18.464;2024-01-30T05:26:42;38.30;;;17.70;;
59587;SDS011;45412;54.472;18.464;2024-01-30T05:29:28;42.10;;;18.60;;
59587;SDS011;45412;54.472;18.464;2024-01-30T05:32:15;35.60;;;15.50;;
59587;SDS011;45412;54.472;18.464;2024-01-30T05:35:01;38.90;;;18.40;;
59587;SDS011;45412;54.472;18.464;2024-01-30T05:37:48;41.00;;;18.70;;
59587;SDS011;45412;54.472;18.464;2024-01-30T05:40:38;36.10;;;15.60;;
59587;SDS011;45412;54.472;18.464;2024-01-30T05:43:24;41.10;;;16.90;;
59587;SDS011;45412;54.472;18.464;2024-01-30T05:46:11;43.20;;;18.90;;
59587;SDS011;45412;54.472;18.464;2024-01-30T05:48:57;43.20;;;17.90;;
59587;SDS011;45412;54.472;18.464;2024-01-30T05:51:44;44.50;;;19.20;;
59587;SDS011;45412;54.472;18.464;2024-01-30T05:54:31;39.20;;;17.70;;
59587;SDS011;45412;54.472;18.464;2024-01-30T05:57:17;40.70;;;19.90;;
59587;SDS011;45412;54.472;18.464;2024-01-30T06:00:05;40.60;;;18.70;;
59587;SDS011;45412;54.472;18.464;2024-01-30T06:02:53;39.00;;;18.00;;
59587;SDS011;45412;54.472;18.464;2024-01-30T06:05:40;33.50;;;15.70;;
59587;SDS011;45412;54.472;18.464;2024-01-30T06:08:26;34.50;;;16.00;;
59587;SDS011;45412;54.472;18.464;2024-01-30T06:11:13;33.60;;;14.50;;
59587;SDS011;45412;54.472;18.464;2024-01-30T06:13:59;37.10;;;15.60;;
59587;SDS011;45412;54.472;18.464;2024-01-30T06:16:46;35.80;;;14.60;;
59587;SDS011;45412;54.472;18.464;2024-01-30T06:19:32;34.50;;;15.00;;
59587;SDS011;45412;54.472;18.464;2024-01-30T06:22:19;36.00;;;16.20;;
59587;SDS011;45412;54.472;18.464;2024-01-30T06:25:06;36.90;;;16.80;;
59587;SDS011;45412;54.472;18.464;2024-01-30T06:27:53;37.10;;;16.80;;
59587;SDS011;45412;54.472;18.464;2024-01-30T06:30:39;36.70;;;16.80;;
59587;SDS011;45412;54.472;18.464;2024-01-30T06:33:25;33.90;;;14.10;;
59587;SDS011;45412;54.472;18.464;2024-01-30T06:36:12;30.10;;;13.50;;
59587;SDS011;45412;54.472;18.464;2024-01-30T06:38:59;34.60;;;13.70;;
59587;SDS011;45412;54.472;18.464;2024-01-30T06:41:45;29.90;;;13.70;;
59587;SDS011;45412;54.472;18.464;2024-01-30T06:44:32;31.90;;;14.10;;
59587;SDS011;45412;54.472;18.464;2024-01-30T06:47:19;35.10;;;16.50;;
59587;SDS011;45412;54.472;18.464;2024-01-30T06:50:06;36.20;;;17.50;;
59587;SDS011;45412;54.472;18.464;2024-01-30T06:52:53;35.70;;;16.90;;
59587;SDS011;45412;54.472;18.464;2024-01-30T06:55:39;39.40;;;17.40;;
59587;SDS011;45412;54.472;18.464;2024-01-30T06:58:26;39.40;;;16.90;;
59587;SDS011;45412;54.472;18.464;2024-01-30T07:01:12;36.10;;;15.80;;
59587;SDS011;45412;54.472;18.464;2024-01-30T07:03:59;37.90;;;16.70;;
59587;SDS011;45412;54.472;18.464;2024-01-30T07:06:46;39.20;;;16.10;;
59587;SDS011;45412;54.472;18.464;2024-01-30T07:09:32;34.40;;;13.30;;
59587;SDS011;45412;54.472;18.464;2024-01-30T07:12:20;38.40;;;17.40;;
59587;SDS011;45412;54.472;18.464;2024-01-30T07:15:06;36.90;;;15.70;;
59587;SDS011;45412;54.472;18.464;2024-01-30T07:17:56;31.50;;;14.60;;
59587;SDS011;45412;54.472;18.464;2024-01-30T07:20:43;34.00;;;15.00;;
59587;SDS011;45412;54.472;18.464;2024-01-30T07:23:32;33.00;;;14.40;;
59587;SDS011;45412;54.472;18.464;2024-01-30T07:26:20;33.50;;;14.20;;
59587;SDS011;45412;54.472;18.464;2024-01-30T07:29:07;34.40;;;15.20;;
59587;SDS011;45412;54.472;18.464;2024-01-30T07:31:53;34.20;;;16.20;;
59587;SDS011;45412;54.472;18.464;2024-01-30T07:34:40;35.30;;;16.70;;
59587;SDS011;45412;54.472;18.464;2024-01-30T07:37:39;39.10;;;16.90;;
59587;SDS011;45412;54.472;18.464;2024-01-30T07:40:25;36.70;;;17.30;;
59587;SDS011;45412;54.472;18.464;2024-01-30T07:43:12;34.00;;;15.30;;
59587;SDS011;45412;54.472;18.464;2024-01-30T07:45:58;33.40;;;16.30;;
59587;SDS011;45412;54.472;18.464;2024-01-30T07:48:46;38.10;;;16.70;;
59587;SDS011;45412;54.472;18.464;2024-01-30T07:51:33;33.60;;;14.80;;
59587;SDS011;45412;54.472;18.464;2024-01-30T07:54:19;39.40;;;16.70;;
59587;SDS011;45412;54.472;18.464;2024-01-30T07:57:06;35.40;;;15.20;;
59587;SDS011;45412;54.472;18.464;2024-01-30T07:59:53;37.70;;;16.40;;
59587;SDS011;45412;54.472;18.464;2024-01-30T08:02:40;38.30;;;16.10;;
59587;SDS011;45412;54.472;18.464;2024-01-30T08:05:26;43.30;;;19.70;;
59587;SDS011;45412;54.472;18.464;2024-01-30T08:08:13;38.40;;;16.30;;
59587;SDS011;45412;54.472;18.464;2024-01-30T08:10:59;33.40;;;14.70;;
59587;SDS011;45412;54.472;18.464;2024-01-30T08:13:45;43.10;;;18.00;;
59587;SDS011;45412;54.472;18.464;2024-01-30T08:16:32;40.60;;;19.10;;
59587;SDS011;45412;54.472;18.464;2024-01-30T08:19:19;39.30;;;17.40;;
59587;SDS011;45412;54.472;18.464;2024-01-30T08:22:05;39.10;;;18.00;;
59587;SDS011;45412;54.472;18.464;2024-01-30T08:24:52;36.50;;;16.80;;
59587;SDS011;45412;54.472;18.464;2024-01-30T08:27:38;37.40;;;16.80;;
59587;SDS011;45412;54.472;18.464;2024-01-30T08:30:25;36.20;;;16.50;;
59587;SDS011;45412;54.472;18.464;2024-01-30T08:33:13;36.20;;;16.00;;
59587;SDS011;45412;54.472;18.464;2024-01-30T08:36:00;32.30;;;14.80;;
59587;SDS011;45412;54.472;18.464;2024-01-30T08:38:46;28.40;;;14.20;;
59587;SDS011;45412;54.472;18.464;2024-01-30T08:41:33;33.70;;;14.30;;
59587;SDS011;45412;54.472;18.464;2024-01-30T08:44:21;26.20;;;12.20;;
59587;SDS011;45412;54.472;18.464;2024-01-30T08:47:07;33.40;;;15.70;;
59587;SDS011;45412;54.472;18.464;2024-01-30T08:49:54;33.00;;;14.70;;
59587;SDS011;45412;54.472;18.464;2024-01-30T08:52:40;28.90;;;15.00;;
59587;SDS011;45412;54.472;18.464;2024-01-30T08:55:27;31.80;;;14.50;;
59587;SDS011;45412;54.472;18.464;2024-01-30T08:58:13;31.00;;;14.90;;
59587;SDS011;45412;54.472;18.464;2024-01-30T09:01:00;35.20;;;15.20;;
59587;SDS011;45412;54.472;18.464;2024-01-30T09:03:46;34.60;;;14.90;;
59587;SDS011;45412;54.472;18.464;2024-01-30T09:06:32;32.40;;;13.50;;
59587;SDS011;45412;54.472;18.464;2024-01-30T09:09:19;36.60;;;16.40;;
59587;SDS011;45412;54.472;18.464;2024-01-30T09:12:05;29.50;;;14.00;;
59587;SDS011;45412;54.472;18.464;2024-01-30T09:14:55;29.70;;;14.70;;
59587;SDS011;45412;54.472;18.464;2024-01-30T09:17:41;31.10;;;16.30;;
59587;SDS011;45412;54.472;18.464;2024-01-30T09:20:28;33.00;;;14.60;;
59587;SDS011;45412;54.472;18.464;2024-01-30T09:23:20;31.80;;;14.90;;
59587;SDS011;45412;54.472;18.464;2024-01-30T09:26:06;27.70;;;13.70;;
59587;SDS011;45412;54.472;18.464;2024-01-30T09:28:53;27.00;;;13.50;;
59587;SDS011;45412;54.472;18.464;2024-01-30T09:31:39;27.50;;;14.10;;
59587;SDS011;45412;54.472;18.464;2024-01-30T09:34:30;30.70;;;14.60;;
59587;SDS011;45412;54.472;18.464;2024-01-30T09:37:16;28.50;;;14.50;;
59587;SDS011;45412;54.472;18.464;2024-01-30T09:40:05;28.00;;;14.60;;
59587;SDS011;45412;54.472;18.464;2024-01-30T09:42:52;30.80;;;14.90;;
59587;SDS011;45412;54.472;18.464;2024-01-30T09:45:40;30.50;;;15.50;;
59587;SDS011;45412;54.472;18.464;2024-01-30T09:48:30;28.30;;;15.60;;
59587;SDS011;45412;54.472;18.464;2024-01-30T09:51:17;28.00;;;14.10;;
59587;SDS011;45412;54.472;18.464;2024-01-30T09:54:04;30.10;;;15.00;;
59587;SDS011;45412;54.472;18.464;2024-01-30T09:56:51;29.00;;;15.10;;
59587;SDS011;45412;54.472;18.464;2024-01-30T09:59:37;28.30;;;14.60;;
59587;SDS011;45412;54.472;18.464;2024-01-30T10:02:23;25.90;;;14.40;;
59587;SDS011;45412;54.472;18.464;2024-01-30T10:05:10;27.40;;;14.90;;
59587;SDS011;45412;54.472;18.464;2024-01-30T10:08:05;27.20;;;13.90;;
59587;SDS011;45412;54.472;18.464;2024-01-30T10:10:57;28.60;;;14.70;;
59587;SDS011;45412;54.472;18.464;2024-01-30T10:13:45;25.70;;;14.30;;
59587;SDS011;45412;54.472;18.464;2024-01-30T10:16:36;25.80;;;13.80;;
59587;SDS011;45412;54.472;18.464;2024-01-30T10:19:24;27.50;;;14.20;;
59587;SDS011;45412;54.472;18.464;2024-01-30T10:22:11;23.60;;;13.20;;
59587;SDS011;45412;54.472;18.464;2024-01-30T10:24:58;24.80;;;13.30;;
59587;SDS011;45412;54.472;18.464;2024-01-30T10:27:54;26.10;;;13.50;;
59587;SDS011;45412;54.472;18.464;2024-01-30T10:30:44;22.70;;;12.50;;
59587;SDS011;45412;54.472;18.464;2024-01-30T10:33:30;23.40;;;13.30;;
59587;SDS011;45412;54.472;18.464;2024-01-30T10:36:17;20.70;;;11.70;;
59587;SDS011;45412;54.472;18.464;2024-01-30T10:39:06;22.10;;;12.90;;
59587;SDS011;45412;54.472;18.464;2024-01-30T10:41:53;23.00;;;13.80;;
59587;SDS011;45412;54.472;18.464;2024-01-30T10:47:55;24.20;;;13.60;;
59587;SDS011;45412;54.472;18.464;2024-01-30T10:50:44;23.70;;;13.00;;
59587;SDS011;45412;54.472;18.464;2024-01-30T10:53:43;21.60;;;12.20;;
59587;SDS011;45412;54.472;18.464;2024-01-30T10:56:32;22.20;;;12.60;;
59587;SDS011;45412;54.472;18.464;2024-01-30T10:59:20;21.00;;;10.80;;
59587;SDS011;45412;54.472;18.464;2024-01-30T11:02:09;22.00;;;12.10;;
59587;SDS011;45412;54.472;18.464;2024-01-30T11:04:58;22.90;;;12.30;;
59587;SDS011;45412;54.472;18.464;2024-01-30T11:07:46;26.20;;;12.20;;
59587;SDS011;45412;54.472;18.464;2024-01-30T11:10:33;24.10;;;13.00;;
59587;SDS011;45412;54.472;18.464;2024-01-30T11:13:30;23.10;;;11.90;;
59587;SDS011;45412;54.472;18.464;2024-01-30T11:16:17;22.30;;;11.50;;
59587;SDS011;45412;54.472;18.464;2024-01-30T11:19:10;20.30;;;11.20;;
59587;SDS011;45412;54.472;18.464;2024-01-30T11:22:00;24.80;;;13.40;;
59587;SDS011;45412;54.472;18.464;2024-01-30T11:24:47;24.80;;;14.40;;
59587;SDS011;45412;54.472;18.464;2024-01-30T11:27:34;23.00;;;11.80;;
59587;SDS011;45412;54.472;18.464;2024-01-30T11:30:24;21.60;;;12.00;;
59587;SDS011;45412;54.472;18.464;2024-01-30T11:33:27;18.70;;;10.60;;
59587;SDS011;45412;54.472;18.464;2024-01-30T11:36:22;21.60;;;12.50;;
59587;SDS011;45412;54.472;18.464;2024-01-30T11:39:11;23.50;;;13.00;;
59587;SDS011;45412;54.472;18.464;2024-01-30T11:42:01;19.30;;;11.10;;
59587;SDS011;45412;54.472;18.464;2024-01-30T11:44:53;22.00;;;11.10;;
59587;SDS011;45412;54.472;18.464;2024-01-30T11:47:40;19.70;;;10.70;;
59587;SDS011;45412;54.472;18.464;2024-01-30T11:50:32;21.30;;;11.20;;
59587;SDS011;45412;54.472;18.464;2024-01-30T11:53:21;18.90;;;11.10;;
59587;SDS011;45412;54.472;18.464;2024-01-30T11:56:08;19.70;;;11.30;;
59587;SDS011;45412;54.472;18.464;2024-01-30T11:58:54;22.30;;;12.00;;
59587;SDS011;45412;54.472;18.464;2024-01-30T12:01:40;23.80;;;13.20;;
59587;SDS011;45412;54.472;18.464;2024-01-30T12:04:28;21.70;;;11.90;;
59587;SDS011;45412;54.472;18.464;2024-01-30T12:07:16;22.50;;;12.00;;
59587;SDS011;45412;54.472;18.464;2024-01-30T12:10:02;22.70;;;11.60;;
59587;SDS011;45412;54.472;18.464;2024-01-30T12:12:50;25.70;;;12.50;;
59587;SDS011;45412;54.472;18.464;2024-01-30T12:15:36;23.80;;;13.20;;
59587;SDS011;45412;54.472;18.464;2024-01-30T12:18:23;25.30;;;13.20;;
59587;SDS011;45412;54.472;18.464;2024-01-30T12:21:09;25.90;;;12.80;;
59587;SDS011;45412;54.472;18.464;2024-01-30T12:23:57;27.50;;;14.10;;
59587;SDS011;45412;54.472;18.464;2024-01-30T12:26:44;30.00;;;15.00;;
59587;SDS011;45412;54.472;18.464;2024-01-30T12:29:32;28.50;;;14.40;;
59587;SDS011;45412;54.472;18.464;2024-01-30T12:32:23;29.70;;;14.20;;
59587;SDS011;45412;54.472;18.464;2024-01-30T12:35:14;28.80;;;14.80;;
59587;SDS011;45412;54.472;18.464;2024-01-30T12:38:02;32.80;;;15.20;;
59587;SDS011;45412;54.472;18.464;2024-01-30T12:40:50;30.90;;;14.50;;
59587;SDS011;45412;54.472;18.464;2024-01-30T12:43:41;29.20;;;14.20;;
59587;SDS011;45412;54.472;18.464;2024-01-30T12:46:29;28.60;;;15.80;;
59587;SDS011;45412;54.472;18.464;2024-01-30T12:49:16;28.80;;;14.40;;
59587;SDS011;45412;54.472;18.464;2024-01-30T12:52:03;28.00;;;13.70;;
59587;SDS011;45412;54.472;18.464;2024-01-30T12:54:50;28.20;;;14.30;;
59587;SDS011;45412;54.472;18.464;2024-01-30T12:57:37;28.50;;;14.00;;
59587;SDS011;45412;54.472;18.464;2024-01-30T13:00:25;34.90;;;15.50;;
59587;SDS011;45412;54.472;18.464;2024-01-30T13:03:12;27.90;;;14.30;;
59587;SDS011;45412;54.472;18.464;2024-01-30T13:05:58;29.30;;;14.40;;
59587;SDS011;45412;54.472;18.464;2024-01-30T13:08:45;33.70;;;15.50;;
59587;SDS011;45412;54.472;18.464;2024-01-30T13:11:31;35.90;;;16.20;;
59587;SDS011;45412;54.472;18.464;2024-01-30T13:14:18;32.70;;;16.10;;
59587;SDS011;45412;54.472;18.464;2024-01-30T13:17:05;37.90;;;16.90;;
59587;SDS011;45412;54.472;18.464;2024-01-30T13:19:53;35.00;;;16.20;;
59587;SDS011;45412;54.472;18.464;2024-01-30T13:22:42;39.40;;;16.70;;
59587;SDS011;45412;54.472;18.464;2024-01-30T13:25:31;42.60;;;17.80;;
59587;SDS011;45412;54.472;18.464;2024-01-30T13:28:17;42.00;;;17.30;;
59587;SDS011;45412;54.472;18.464;2024-01-30T13:31:04;37.80;;;16.10;;
59587;SDS011;45412;54.472;18.464;2024-01-30T13:33:53;37.50;;;16.00;;
59587;SDS011;45412;54.472;18.464;2024-01-30T13:36:40;32.20;;;13.20;;
59587;SDS011;45412;54.472;18.464;2024-01-30T13:39:27;35.50;;;15.90;;
59587;SDS011;45412;54.472;18.464;2024-01-30T13:42:22;42.00;;;17.30;;
59587;SDS011;45412;54.472;18.464;2024-01-30T13:45:09;35.70;;;15.50;;
59587;SDS011;45412;54.472;18.464;2024-01-30T13:47:58;41.80;;;17.30;;
59587;SDS011;45412;54.472;18.464;2024-01-30T13:50:45;41.30;;;17.80;;
59587;SDS011;45412;54.472;18.464;2024-01-30T13:53:31;31.10;;;14.40;;
59587;SDS011;45412;54.472;18.464;2024-01-30T13:56:18;40.40;;;17.30;;
59587;SDS011;45412;54.472;18.464;2024-01-30T13:59:05;44.00;;;17.80;;
59587;SDS011;45412;54.472;18.464;2024-01-30T14:01:52;39.30;;;18.10;;
59587;SDS011;45412;54.472;18.464;2024-01-30T14:04:39;42.70;;;18.90;;
59587;SDS011;45412;54.472;18.464;2024-01-30T14:07:26;42.60;;;18.90;;
59587;SDS011;45412;54.472;18.464;2024-01-30T14:10:13;38.20;;;17.60;;
59587;SDS011;45412;54.472;18.464;2024-01-30T14:13:01;37.30;;;16.90;;
59587;SDS011;45412;54.472;18.464;2024-01-30T14:15:47;35.20;;;15.60;;
59587;SDS011;45412;54.472;18.464;2024-01-30T14:18:34;35.70;;;16.90;;
59587;SDS011;45412;54.472;18.464;2024-01-30T14:21:20;36.90;;;17.80;;
59587;SDS011;45412;54.472;18.464;2024-01-30T14:24:06;32.00;;;15.70;;
59587;SDS011;45412;54.472;18.464;2024-01-30T14:26:53;35.70;;;16.40;;
59587;SDS011;45412;54.472;18.464;2024-01-30T14:29:39;33.70;;;15.50;;
59587;SDS011;45412;54.472;18.464;2024-01-30T14:32:27;32.80;;;15.50;;
59587;SDS011;45412;54.472;18.464;2024-01-30T14:35:14;32.90;;;15.60;;
59587;SDS011;45412;54.472;18.464;2024-01-30T14:38:01;35.20;;;15.60;;
59587;SDS011;45412;54.472;18.464;2024-01-30T14:40:50;31.20;;;14.40;;
59587;SDS011;45412;54.472;18.464;2024-01-30T14:43:37;33.10;;;15.20;;
59587;SDS011;45412;54.472;18.464;2024-01-30T14:46:24;32.30;;;14.40;;
59587;SDS011;45412;54.472;18.464;2024-01-30T14:49:13;31.60;;;14.50;;
59587;SDS011;45412;54.472;18.464;2024-01-30T14:52:02;31.90;;;15.40;;
59587;SDS011;45412;54.472;18.464;2024-01-30T14:54:50;36.90;;;16.70;;
59587;SDS011;45412;54.472;18.464;2024-01-30T14:57:37;37.70;;;16.50;;
59587;SDS011;45412;54.472;18.464;2024-01-30T15:00:24;33.60;;;14.80;;
59587;SDS011;45412;54.472;18.464;2024-01-30T15:03:10;34.50;;;16.00;;
59587;SDS011;45412;54.472;18.464;2024-01-30T15:05:56;34.00;;;15.90;;
59587;SDS011;45412;54.472;18.464;2024-01-30T15:08:43;37.60;;;16.50;;
59587;SDS011;45412;54.472;18.464;2024-01-30T15:11:29;32.80;;;15.40;;
59587;SDS011;45412;54.472;18.464;2024-01-30T15:14:18;35.90;;;16.80;;
59587;SDS011;45412;54.472;18.464;2024-01-30T15:17:04;33.50;;;15.20;;
59587;SDS011;45412;54.472;18.464;2024-01-30T15:19:51;32.60;;;15.90;;
59587;SDS011;45412;54.472;18.464;2024-01-30T15:22:40;36.60;;;16.20;;
59587;SDS011;45412;54.472;18.464;2024-01-30T15:25:26;32.80;;;14.30;;
59587;SDS011;45412;54.472;18.464;2024-01-30T15:28:15;34.50;;;16.30;;
59587;SDS011;45412;54.472;18.464;2024-01-30T15:31:01;37.70;;;16.60;;
59587;SDS011;45412;54.472;18.464;2024-01-30T15:33:47;37.30;;;16.50;;
59587;SDS011;45412;54.472;18.464;2024-01-30T15:36:34;33.90;;;16.50;;
59587;SDS011;45412;54.472;18.464;2024-01-30T15:39:20;40.10;;;17.20;;
59587;SDS011;45412;54.472;18.464;2024-01-30T15:42:07;34.10;;;16.40;;
59587;SDS011;45412;54.472;18.464;2024-01-30T15:44:53;30.70;;;13.50;;
59587;SDS011;45412;54.472;18.464;2024-01-30T15:47:42;37.40;;;16.80;;
59587;SDS011;45412;54.472;18.464;2024-01-30T15:50:28;33.60;;;15.50;;
59587;SDS011;45412;54.472;18.464;2024-01-30T15:53:15;32.80;;;14.70;;
59587;SDS011;45412;54.472;18.464;2024-01-30T15:56:01;33.10;;;13.90;;
59587;SDS011;45412;54.472;18.464;2024-01-30T15:58:48;40.00;;;18.40;;
59587;SDS011;45412;54.472;18.464;2024-01-30T16:01:35;37.10;;;15.40;;
59587;SDS011;45412;54.472;18.464;2024-01-30T16:04:22;39.20;;;17.80;;
59587;SDS011;45412;54.472;18.464;2024-01-30T16:07:11;34.60;;;15.50;;